sensor_id;sensor_type;location;lat;lon;timestamp;P1;durP1;ratioP1;P2;durP2;ratioP2
75280;SDS011;63874;47.230;39.620;2023-09-12T00:01:26;21.58;;;10.40;;
75280;SDS011;63874;47.230;39.620;2023-09-12T00:03:53;20.20;;;9.70;;
75280;SDS011;63874;47.230;39.620;2023-09-12T00:06:19;20.77;;;9.18;;
75280;SDS011;63874;47.230;39.620;2023-09-12T00:08:51;18.13;;;8.88;;
75280;SDS011;63874;47.230;39.620;2023-09-12T00:11:17;18.05;;;9.07;;
75280;SDS011;63874;47.230;39.620;2023-09-12T00:13:44;21.20;;;9.10;;
75280;SDS011;63874;47.230;39.620;2023-09-12T00:16:10;22.00;;;9.95;;
75280;SDS011;63874;47.230;39.620;2023-09-12T00:18:37;21.05;;;9.77;;
75280;SDS011;63874;47.230;39.620;2023-09-12T00:21:04;18.75;;;8.90;;
75280;SDS011;63874;47.230;39.620;2023-09-12T00:23:30;19.02;;;9.02;;
75280;SDS011;63874;47.230;39.620;2023-09-12T00:25:57;20.48;;;10.52;;
75280;SDS011;63874;47.230;39.620;2023-09-12T00:28:25;22.08;;;9.75;;
75280;SDS011;63874;47.230;39.620;2023-09-12T00:30:51;22.42;;;10.20;;
75280;SDS011;63874;47.230;39.620;2023-09-12T00:33:20;19.00;;;9.18;;
75280;SDS011;63874;47.230;39.620;2023-09-12T00:35:45;21.73;;;9.00;;
75280;SDS011;63874;47.230;39.620;2023-09-12T00:38:11;18.98;;;9.05;;
75280;SDS011;63874;47.230;39.620;2023-09-12T00:40:37;23.13;;;9.73;;
75280;SDS011;63874;47.230;39.620;2023-09-12T00:43:03;22.88;;;8.68;;
75280;SDS011;63874;47.230;39.620;2023-09-12T00:45:30;20.10;;;9.98;;
75280;SDS011;63874;47.230;39.620;2023-09-12T00:47:57;21.13;;;9.43;;
75280;SDS011;63874;47.230;39.620;2023-09-12T00:50:25;18.27;;;8.85;;
75280;SDS011;63874;47.230;39.620;2023-09-12T00:52:53;21.50;;;9.77;;
75280;SDS011;63874;47.230;39.620;2023-09-12T00:55:20;24.75;;;10.60;;
75280;SDS011;63874;47.230;39.620;2023-09-12T00:57:45;20.23;;;9.35;;
75280;SDS011;63874;47.230;39.620;2023-09-12T01:00:13;21.27;;;10.02;;
75280;SDS011;63874;47.230;39.620;2023-09-12T01:02:41;19.38;;;9.25;;
75280;SDS011;63874;47.230;39.620;2023-09-12T01:05:08;17.05;;;8.52;;
75280;SDS011;63874;47.230;39.620;2023-09-12T01:07:38;21.85;;;9.77;;
75280;SDS011;63874;47.230;39.620;2023-09-12T01:10:05;22.45;;;10.38;;
75280;SDS011;63874;47.230;39.620;2023-09-12T01:12:32;20.38;;;8.50;;
75280;SDS011;63874;47.230;39.620;2023-09-12T01:14:58;18.35;;;9.43;;
75280;SDS011;63874;47.230;39.620;2023-09-12T01:17:24;18.30;;;9.15;;
75280;SDS011;63874;47.230;39.620;2023-09-12T01:19:52;21.85;;;9.82;;
75280;SDS011;63874;47.230;39.620;2023-09-12T01:22:26;21.02;;;9.02;;
75280;SDS011;63874;47.230;39.620;2023-09-12T01:27:48;19.58;;;9.27;;
75280;SDS011;63874;47.230;39.620;2023-09-12T01:30:22;20.02;;;8.55;;
75280;SDS011;63874;47.230;39.620;2023-09-12T01:32:50;17.30;;;8.65;;
75280;SDS011;63874;47.230;39.620;2023-09-12T01:35:17;21.30;;;10.25;;
75280;SDS011;63874;47.230;39.620;2023-09-12T01:37:43;23.30;;;8.40;;
75280;SDS011;63874;47.230;39.620;2023-09-12T01:40:12;18.10;;;8.35;;
75280;SDS011;63874;47.230;39.620;2023-09-12T01:42:41;19.45;;;9.13;;
75280;SDS011;63874;47.230;39.620;2023-09-12T01:45:14;25.33;;;9.80;;
75280;SDS011;63874;47.230;39.620;2023-09-12T01:47:43;20.83;;;10.00;;
75280;SDS011;63874;47.230;39.620;2023-09-12T01:50:11;22.90;;;10.00;;
75280;SDS011;63874;47.230;39.620;2023-09-12T01:52:41;20.92;;;9.63;;
75280;SDS011;63874;47.230;39.620;2023-09-12T01:55:07;22.77;;;10.10;;
75280;SDS011;63874;47.230;39.620;2023-09-12T01:57:36;21.73;;;10.70;;
75280;SDS011;63874;47.230;39.620;2023-09-12T02:00:04;19.48;;;8.95;;
75280;SDS011;63874;47.230;39.620;2023-09-12T02:02:30;24.23;;;10.93;;
75280;SDS011;63874;47.230;39.620;2023-09-12T02:05:13;25.50;;;9.43;;
75280;SDS011;63874;47.230;39.620;2023-09-12T02:07:44;24.17;;;10.35;;
75280;SDS011;63874;47.230;39.620;2023-09-12T02:10:10;20.27;;;9.93;;
75280;SDS011;63874;47.230;39.620;2023-09-12T02:12:37;19.25;;;8.38;;
75280;SDS011;63874;47.230;39.620;2023-09-12T02:15:03;21.75;;;11.07;;
75280;SDS011;63874;47.230;39.620;2023-09-12T02:17:31;19.25;;;10.65;;
75280;SDS011;63874;47.230;39.620;2023-09-12T02:20:00;22.92;;;9.93;;
75280;SDS011;63874;47.230;39.620;2023-09-12T02:22:26;23.67;;;10.10;;
75280;SDS011;63874;47.230;39.620;2023-09-12T02:24:52;19.10;;;9.32;;
75280;SDS011;63874;47.230;39.620;2023-09-12T02:27:18;20.77;;;10.55;;
75280;SDS011;63874;47.230;39.620;2023-09-12T02:29:43;22.88;;;10.95;;
75280;SDS011;63874;47.230;39.620;2023-09-12T02:32:09;22.45;;;10.43;;
75280;SDS011;63874;47.230;39.620;2023-09-12T02:34:35;22.23;;;10.77;;
75280;SDS011;63874;47.230;39.620;2023-09-12T02:37:05;24.10;;;10.13;;
75280;SDS011;63874;47.230;39.620;2023-09-12T02:39:30;21.13;;;10.32;;
75280;SDS011;63874;47.230;39.620;2023-09-12T02:41:59;22.15;;;10.43;;
75280;SDS011;63874;47.230;39.620;2023-09-12T02:44:25;25.10;;;11.07;;
75280;SDS011;63874;47.230;39.620;2023-09-12T02:46:51;24.63;;;10.25;;
75280;SDS011;63874;47.230;39.620;2023-09-12T02:49:19;22.80;;;11.25;;
75280;SDS011;63874;47.230;39.620;2023-09-12T02:51:45;22.73;;;10.45;;
75280;SDS011;63874;47.230;39.620;2023-09-12T02:54:11;19.38;;;9.98;;
75280;SDS011;63874;47.230;39.620;2023-09-12T02:56:37;24.58;;;11.32;;
75280;SDS011;63874;47.230;39.620;2023-09-12T02:59:05;24.85;;;11.18;;
75280;SDS011;63874;47.230;39.620;2023-09-12T03:01:31;24.23;;;12.10;;
75280;SDS011;63874;47.230;39.620;2023-09-12T03:03:57;25.10;;;10.63;;
75280;SDS011;63874;47.230;39.620;2023-09-12T03:06:23;20.98;;;10.20;;
75280;SDS011;63874;47.230;39.620;2023-09-12T03:08:51;24.15;;;12.45;;
75280;SDS011;63874;47.230;39.620;2023-09-12T03:11:16;27.27;;;11.55;;
75280;SDS011;63874;47.230;39.620;2023-09-12T03:13:43;25.92;;;12.30;;
75280;SDS011;63874;47.230;39.620;2023-09-12T03:16:09;24.45;;;10.57;;
75280;SDS011;63874;47.230;39.620;2023-09-12T03:18:39;24.45;;;11.20;;
75280;SDS011;63874;47.230;39.620;2023-09-12T03:21:05;29.23;;;12.60;;
75280;SDS011;63874;47.230;39.620;2023-09-12T03:23:32;25.02;;;12.25;;
75280;SDS011;63874;47.230;39.620;2023-09-12T03:26:04;28.83;;;11.80;;
75280;SDS011;63874;47.230;39.620;2023-09-12T03:28:33;24.73;;;11.70;;
75280;SDS011;63874;47.230;39.620;2023-09-12T03:31:06;21.45;;;11.00;;
75280;SDS011;63874;47.230;39.620;2023-09-12T03:33:38;26.50;;;11.23;;
75280;SDS011;63874;47.230;39.620;2023-09-12T03:36:05;18.75;;;10.40;;
75280;SDS011;63874;47.230;39.620;2023-09-12T03:38:33;23.95;;;8.82;;
75280;SDS011;63874;47.230;39.620;2023-09-12T03:40:59;25.77;;;10.95;;
75280;SDS011;63874;47.230;39.620;2023-09-12T03:43:27;29.63;;;11.13;;
75280;SDS011;63874;47.230;39.620;2023-09-12T03:45:53;21.50;;;10.18;;
75280;SDS011;63874;47.230;39.620;2023-09-12T03:48:20;24.02;;;11.40;;
75280;SDS011;63874;47.230;39.620;2023-09-12T03:50:46;26.98;;;11.70;;
75280;SDS011;63874;47.230;39.620;2023-09-12T03:53:13;24.05;;;11.68;;
75280;SDS011;63874;47.230;39.620;2023-09-12T03:55:39;33.67;;;13.00;;
75280;SDS011;63874;47.230;39.620;2023-09-12T03:58:06;23.05;;;10.35;;
75280;SDS011;63874;47.230;39.620;2023-09-12T04:00:32;28.77;;;11.23;;
75280;SDS011;63874;47.230;39.620;2023-09-12T04:02:58;18.58;;;9.25;;
75280;SDS011;63874;47.230;39.620;2023-09-12T04:05:28;22.20;;;11.02;;
75280;SDS011;63874;47.230;39.620;2023-09-12T04:07:54;19.70;;;10.15;;
75280;SDS011;63874;47.230;39.620;2023-09-12T04:10:20;29.35;;;11.75;;
75280;SDS011;63874;47.230;39.620;2023-09-12T04:12:46;22.83;;;10.00;;
75280;SDS011;63874;47.230;39.620;2023-09-12T04:15:12;24.92;;;12.85;;
75280;SDS011;63874;47.230;39.620;2023-09-12T04:17:38;28.00;;;9.40;;
75280;SDS011;63874;47.230;39.620;2023-09-12T04:20:05;23.42;;;11.32;;
75280;SDS011;63874;47.230;39.620;2023-09-12T04:22:32;22.58;;;10.27;;
75280;SDS011;63874;47.230;39.620;2023-09-12T04:24:58;22.30;;;10.50;;
75280;SDS011;63874;47.230;39.620;2023-09-12T04:27:24;22.08;;;8.73;;
75280;SDS011;63874;47.230;39.620;2023-09-12T04:29:51;21.63;;;10.50;;
75280;SDS011;63874;47.230;39.620;2023-09-12T04:32:17;19.95;;;9.35;;
75280;SDS011;63874;47.230;39.620;2023-09-12T04:34:49;28.63;;;11.02;;
75280;SDS011;63874;47.230;39.620;2023-09-12T04:37:16;24.85;;;10.93;;
75280;SDS011;63874;47.230;39.620;2023-09-12T04:39:44;27.13;;;11.57;;
75280;SDS011;63874;47.230;39.620;2023-09-12T04:42:11;27.25;;;10.48;;
75280;SDS011;63874;47.230;39.620;2023-09-12T04:44:39;24.33;;;12.15;;
75280;SDS011;63874;47.230;39.620;2023-09-12T04:47:06;20.85;;;9.52;;
75280;SDS011;63874;47.230;39.620;2023-09-12T04:49:32;25.15;;;9.63;;
75280;SDS011;63874;47.230;39.620;2023-09-12T04:51:57;23.25;;;9.57;;
75280;SDS011;63874;47.230;39.620;2023-09-12T04:54:23;23.73;;;10.27;;
75280;SDS011;63874;47.230;39.620;2023-09-12T04:56:50;22.17;;;9.50;;
75280;SDS011;63874;47.230;39.620;2023-09-12T04:59:17;22.67;;;10.25;;
75280;SDS011;63874;47.230;39.620;2023-09-12T05:01:43;26.15;;;10.48;;
75280;SDS011;63874;47.230;39.620;2023-09-12T05:04:09;23.02;;;9.55;;
75280;SDS011;63874;47.230;39.620;2023-09-12T05:06:41;22.30;;;8.88;;
75280;SDS011;63874;47.230;39.620;2023-09-12T05:09:09;21.00;;;9.25;;
75280;SDS011;63874;47.230;39.620;2023-09-12T05:11:36;20.92;;;8.52;;
75280;SDS011;63874;47.230;39.620;2023-09-12T05:14:03;20.95;;;9.05;;
75280;SDS011;63874;47.230;39.620;2023-09-12T05:16:29;21.45;;;8.15;;
75280;SDS011;63874;47.230;39.620;2023-09-12T05:18:55;20.60;;;7.93;;
75280;SDS011;63874;47.230;39.620;2023-09-12T05:21:22;26.63;;;9.55;;
75280;SDS011;63874;47.230;39.620;2023-09-12T05:23:50;25.15;;;9.95;;
75280;SDS011;63874;47.230;39.620;2023-09-12T05:26:16;24.35;;;8.38;;
75280;SDS011;63874;47.230;39.620;2023-09-12T05:28:42;20.05;;;8.02;;
75280;SDS011;63874;47.230;39.620;2023-09-12T05:31:08;18.30;;;7.72;;
75280;SDS011;63874;47.230;39.620;2023-09-12T05:33:36;17.77;;;7.75;;
75280;SDS011;63874;47.230;39.620;2023-09-12T05:36:02;18.92;;;7.20;;
75280;SDS011;63874;47.230;39.620;2023-09-12T05:38:28;18.70;;;6.93;;
75280;SDS011;63874;47.230;39.620;2023-09-12T05:40:54;17.88;;;7.43;;
75280;SDS011;63874;47.230;39.620;2023-09-12T05:43:20;19.65;;;8.05;;
75280;SDS011;63874;47.230;39.620;2023-09-12T05:45:52;21.30;;;8.20;;
75280;SDS011;63874;47.230;39.620;2023-09-12T05:48:18;25.33;;;8.18;;
75280;SDS011;63874;47.230;39.620;2023-09-12T14:58:09;15.02;;;5.53;;
75280;SDS011;63874;47.230;39.620;2023-09-12T15:00:35;16.85;;;6.70;;
75280;SDS011;63874;47.230;39.620;2023-09-12T15:03:01;13.50;;;6.35;;
75280;SDS011;63874;47.230;39.620;2023-09-12T15:05:30;15.48;;;6.50;;
75280;SDS011;63874;47.230;39.620;2023-09-12T15:07:57;16.90;;;6.07;;
75280;SDS011;63874;47.230;39.620;2023-09-12T15:10:24;22.73;;;6.82;;
75280;SDS011;63874;47.230;39.620;2023-09-12T15:12:50;20.48;;;8.32;;
75280;SDS011;63874;47.230;39.620;2023-09-12T15:15:16;18.63;;;6.80;;
75280;SDS011;63874;47.230;39.620;2023-09-12T15:17:42;19.25;;;7.07;;
75280;SDS011;63874;47.230;39.620;2023-09-12T15:20:09;20.17;;;6.70;;
75280;SDS011;63874;47.230;39.620;2023-09-12T15:22:35;19.48;;;7.63;;
75280;SDS011;63874;47.230;39.620;2023-09-12T15:25:02;14.73;;;6.93;;
75280;SDS011;63874;47.230;39.620;2023-09-12T15:27:43;14.82;;;6.63;;
75280;SDS011;63874;47.230;39.620;2023-09-12T15:30:12;17.13;;;6.07;;
75280;SDS011;63874;47.230;39.620;2023-09-12T15:32:39;17.75;;;6.75;;
75280;SDS011;63874;47.230;39.620;2023-09-12T15:35:07;20.45;;;6.90;;
75280;SDS011;63874;47.230;39.620;2023-09-12T15:37:35;19.17;;;6.72;;
75280;SDS011;63874;47.230;39.620;2023-09-12T15:40:01;16.77;;;6.40;;
75280;SDS011;63874;47.230;39.620;2023-09-12T15:42:28;15.77;;;6.65;;
75280;SDS011;63874;47.230;39.620;2023-09-12T15:44:53;15.63;;;6.57;;
75280;SDS011;63874;47.230;39.620;2023-09-12T15:47:19;19.13;;;7.30;;
75280;SDS011;63874;47.230;39.620;2023-09-12T15:49:45;23.95;;;7.97;;
75280;SDS011;63874;47.230;39.620;2023-09-12T15:52:13;16.25;;;7.47;;
75280;SDS011;63874;47.230;39.620;2023-09-12T15:54:42;15.10;;;6.70;;
75280;SDS011;63874;47.230;39.620;2023-09-12T15:57:08;15.43;;;6.18;;
75280;SDS011;63874;47.230;39.620;2023-09-12T15:59:34;13.30;;;6.28;;
75280;SDS011;63874;47.230;39.620;2023-09-12T16:02:03;17.27;;;6.30;;
75280;SDS011;63874;47.230;39.620;2023-09-12T16:04:29;16.35;;;6.55;;
75280;SDS011;63874;47.230;39.620;2023-09-12T16:06:55;23.23;;;7.95;;
75280;SDS011;63874;47.230;39.620;2023-09-12T16:09:20;13.77;;;5.95;;
75280;SDS011;63874;47.230;39.620;2023-09-12T16:11:47;12.95;;;5.57;;
75280;SDS011;63874;47.230;39.620;2023-09-12T16:14:13;12.88;;;6.07;;
75280;SDS011;63874;47.230;39.620;2023-09-12T16:16:40;13.55;;;5.43;;
75280;SDS011;63874;47.230;39.620;2023-09-12T16:19:07;16.23;;;6.07;;
75280;SDS011;63874;47.230;39.620;2023-09-12T16:21:34;11.88;;;5.15;;
75280;SDS011;63874;47.230;39.620;2023-09-12T16:24:00;12.32;;;5.55;;
75280;SDS011;63874;47.230;39.620;2023-09-12T16:26:26;15.30;;;5.97;;
75280;SDS011;63874;47.230;39.620;2023-09-12T16:28:53;14.20;;;5.68;;
75280;SDS011;63874;47.230;39.620;2023-09-12T16:31:19;16.83;;;6.55;;
75280;SDS011;63874;47.230;39.620;2023-09-12T16:33:45;16.65;;;6.68;;
75280;SDS011;63874;47.230;39.620;2023-09-12T16:36:11;15.18;;;7.20;;
75280;SDS011;63874;47.230;39.620;2023-09-12T16:38:37;15.77;;;6.30;;
75280;SDS011;63874;47.230;39.620;2023-09-12T16:41:03;16.17;;;6.35;;
75280;SDS011;63874;47.230;39.620;2023-09-12T16:43:30;21.63;;;7.72;;
75280;SDS011;63874;47.230;39.620;2023-09-12T16:45:56;19.27;;;7.78;;
75280;SDS011;63874;47.230;39.620;2023-09-12T16:48:22;18.50;;;7.85;;
75280;SDS011;63874;47.230;39.620;2023-09-12T16:50:48;18.27;;;8.15;;
75280;SDS011;63874;47.230;39.620;2023-09-12T16:53:14;21.40;;;9.05;;
75280;SDS011;63874;47.230;39.620;2023-09-12T16:55:41;22.00;;;9.43;;
75280;SDS011;63874;47.230;39.620;2023-09-12T16:58:07;18.95;;;7.28;;
75280;SDS011;63874;47.230;39.620;2023-09-12T17:00:34;16.15;;;7.53;;
75280;SDS011;63874;47.230;39.620;2023-09-12T17:03:00;18.15;;;8.35;;
75280;SDS011;63874;47.230;39.620;2023-09-12T17:05:26;17.65;;;6.88;;
75280;SDS011;63874;47.230;39.620;2023-09-12T17:07:53;16.83;;;7.53;;
75280;SDS011;63874;47.230;39.620;2023-09-12T17:10:20;13.57;;;5.95;;
75280;SDS011;63874;47.230;39.620;2023-09-12T17:12:46;18.35;;;8.48;;
75280;SDS011;63874;47.230;39.620;2023-09-12T17:15:13;18.63;;;8.23;;
75280;SDS011;63874;47.230;39.620;2023-09-12T17:17:43;18.38;;;7.40;;
75280;SDS011;63874;47.230;39.620;2023-09-12T17:20:10;19.55;;;8.10;;
75280;SDS011;63874;47.230;39.620;2023-09-12T17:22:38;19.48;;;8.18;;
75280;SDS011;63874;47.230;39.620;2023-09-12T17:25:05;16.23;;;7.97;;
75280;SDS011;63874;47.230;39.620;2023-09-12T17:27:31;18.88;;;9.63;;
75280;SDS011;63874;47.230;39.620;2023-09-12T17:29:58;17.40;;;8.35;;
75280;SDS011;63874;47.230;39.620;2023-09-12T17:32:24;21.70;;;10.13;;
75280;SDS011;63874;47.230;39.620;2023-09-12T17:34:52;25.05;;;9.07;;
75280;SDS011;63874;47.230;39.620;2023-09-12T17:37:20;22.52;;;9.10;;
75280;SDS011;63874;47.230;39.620;2023-09-12T17:42:25;24.10;;;8.75;;
75280;SDS011;63874;47.230;39.620;2023-09-12T17:44:52;20.60;;;9.05;;
75280;SDS011;63874;47.230;39.620;2023-09-12T17:47:20;22.17;;;9.48;;
75280;SDS011;63874;47.230;39.620;2023-09-12T17:49:46;22.80;;;9.52;;
75280;SDS011;63874;47.230;39.620;2023-09-12T17:52:15;24.90;;;9.70;;
75280;SDS011;63874;47.230;39.620;2023-09-12T17:54:41;21.63;;;8.45;;
75280;SDS011;63874;47.230;39.620;2023-09-12T17:57:09;20.00;;;8.75;;
75280;SDS011;63874;47.230;39.620;2023-09-12T17:59:36;24.63;;;11.30;;
75280;SDS011;63874;47.230;39.620;2023-09-12T18:02:10;21.85;;;8.02;;
75280;SDS011;63874;47.230;39.620;2023-09-12T18:04:36;22.67;;;8.68;;
75280;SDS011;63874;47.230;39.620;2023-09-12T18:07:02;19.70;;;8.95;;
75280;SDS011;63874;47.230;39.620;2023-09-12T18:09:31;19.40;;;8.60;;
75280;SDS011;63874;47.230;39.620;2023-09-12T18:12:04;21.23;;;8.73;;
75280;SDS011;63874;47.230;39.620;2023-09-12T18:14:32;18.67;;;7.68;;
75280;SDS011;63874;47.230;39.620;2023-09-12T18:17:00;19.00;;;8.05;;
75280;SDS011;63874;47.230;39.620;2023-09-12T18:19:29;20.25;;;8.00;;
75280;SDS011;63874;47.230;39.620;2023-09-12T18:21:55;24.58;;;10.35;;
75280;SDS011;63874;47.230;39.620;2023-09-12T18:24:20;24.00;;;8.90;;
75280;SDS011;63874;47.230;39.620;2023-09-12T18:26:48;17.30;;;8.98;;
75280;SDS011;63874;47.230;39.620;2023-09-12T18:29:14;21.48;;;8.85;;
75280;SDS011;63874;47.230;39.620;2023-09-12T18:31:43;19.20;;;8.77;;
75280;SDS011;63874;47.230;39.620;2023-09-12T18:34:09;17.48;;;8.30;;
75280;SDS011;63874;47.230;39.620;2023-09-12T18:36:36;16.70;;;7.53;;
75280;SDS011;63874;47.230;39.620;2023-09-12T18:39:03;20.60;;;8.77;;
75280;SDS011;63874;47.230;39.620;2023-09-12T18:41:32;20.20;;;8.25;;
75280;SDS011;63874;47.230;39.620;2023-09-12T18:43:59;21.13;;;8.52;;
75280;SDS011;63874;47.230;39.620;2023-09-12T18:46:26;17.13;;;8.80;;
75280;SDS011;63874;47.230;39.620;2023-09-12T18:48:52;27.20;;;8.80;;
75280;SDS011;63874;47.230;39.620;2023-09-12T18:51:18;25.45;;;9.98;;
75280;SDS011;63874;47.230;39.620;2023-09-12T18:53:44;20.80;;;8.57;;
75280;SDS011;63874;47.230;39.620;2023-09-12T18:56:10;20.63;;;8.25;;
75280;SDS011;63874;47.230;39.620;2023-09-12T18:58:35;25.50;;;9.50;;
75280;SDS011;63874;47.230;39.620;2023-09-12T19:01:01;25.00;;;9.93;;
75280;SDS011;63874;47.230;39.620;2023-09-12T19:03:28;24.13;;;9.20;;
75280;SDS011;63874;47.230;39.620;2023-09-12T19:05:58;22.90;;;8.18;;
75280;SDS011;63874;47.230;39.620;2023-09-12T19:08:24;20.58;;;8.23;;
75280;SDS011;63874;47.230;39.620;2023-09-12T19:10:49;20.00;;;9.05;;
75280;SDS011;63874;47.230;39.620;2023-09-12T19:13:17;22.20;;;8.10;;
75280;SDS011;63874;47.230;39.620;2023-09-12T19:15:43;23.90;;;8.30;;
75280;SDS011;63874;47.230;39.620;2023-09-12T19:18:12;19.35;;;8.38;;
75280;SDS011;63874;47.230;39.620;2023-09-12T19:20:39;20.20;;;8.30;;
75280;SDS011;63874;47.230;39.620;2023-09-12T19:23:05;17.95;;;7.75;;
75280;SDS011;63874;47.230;39.620;2023-09-12T19:25:31;18.45;;;8.23;;
75280;SDS011;63874;47.230;39.620;2023-09-12T19:28:00;18.65;;;7.70;;
75280;SDS011;63874;47.230;39.620;2023-09-12T19:30:32;18.75;;;8.90;;
75280;SDS011;63874;47.230;39.620;2023-09-12T19:32:59;18.17;;;7.88;;
75280;SDS011;63874;47.230;39.620;2023-09-12T19:35:35;20.20;;;7.93;;
75280;SDS011;63874;47.230;39.620;2023-09-12T19:38:02;26.42;;;7.72;;
75280;SDS011;63874;47.230;39.620;2023-09-12T19:40:28;15.10;;;5.82;;
75280;SDS011;63874;47.230;39.620;2023-09-12T19:42:54;16.25;;;7.10;;
75280;SDS011;63874;47.230;39.620;2023-09-12T19:45:20;20.23;;;7.95;;
75280;SDS011;63874;47.230;39.620;2023-09-12T19:47:45;15.52;;;6.70;;
75280;SDS011;63874;47.230;39.620;2023-09-12T19:50:18;17.52;;;7.00;;
75280;SDS011;63874;47.230;39.620;2023-09-12T19:52:44;19.42;;;8.75;;
75280;SDS011;63874;47.230;39.620;2023-09-12T19:55:11;17.17;;;7.78;;
75280;SDS011;63874;47.230;39.620;2023-09-12T19:57:37;19.13;;;7.20;;
75280;SDS011;63874;47.230;39.620;2023-09-12T20:00:05;20.45;;;7.35;;
75280;SDS011;63874;47.230;39.620;2023-09-12T20:02:32;17.10;;;7.40;;
75280;SDS011;63874;47.230;39.620;2023-09-12T20:04:58;19.50;;;7.28;;
75280;SDS011;63874;47.230;39.620;2023-09-12T20:07:24;16.50;;;7.90;;
75280;SDS011;63874;47.230;39.620;2023-09-12T20:09:50;20.80;;;8.25;;
75280;SDS011;63874;47.230;39.620;2023-09-12T20:12:19;19.27;;;8.00;;
75280;SDS011;63874;47.230;39.620;2023-09-12T20:14:54;15.73;;;7.18;;
75280;SDS011;63874;47.230;39.620;2023-09-12T20:17:20;20.15;;;8.68;;
75280;SDS011;63874;47.230;39.620;2023-09-12T20:19:46;17.98;;;7.88;;
75280;SDS011;63874;47.230;39.620;2023-09-12T20:22:12;20.27;;;8.88;;
75280;SDS011;63874;47.230;39.620;2023-09-12T20:24:38;19.75;;;9.10;;
75280;SDS011;63874;47.230;39.620;2023-09-12T20:27:04;21.80;;;9.30;;
75280;SDS011;63874;47.230;39.620;2023-09-12T20:29:32;22.95;;;9.45;;
75280;SDS011;63874;47.230;39.620;2023-09-12T20:31:57;19.50;;;9.15;;
75280;SDS011;63874;47.230;39.620;2023-09-12T20:34:23;20.10;;;8.95;;
75280;SDS011;63874;47.230;39.620;2023-09-12T20:36:49;14.10;;;6.60;;
75280;SDS011;63874;47.230;39.620;2023-09-12T20:41:52;15.68;;;7.80;;
75280;SDS011;63874;47.230;39.620;2023-09-12T20:44:19;22.83;;;8.10;;
75280;SDS011;63874;47.230;39.620;2023-09-12T20:46:45;19.95;;;7.78;;
75280;SDS011;63874;47.230;39.620;2023-09-12T20:49:11;19.30;;;8.20;;
75280;SDS011;63874;47.230;39.620;2023-09-12T20:51:43;23.92;;;8.80;;
75280;SDS011;63874;47.230;39.620;2023-09-12T20:54:14;18.88;;;7.65;;
75280;SDS011;63874;47.230;39.620;2023-09-12T20:56:41;21.75;;;8.55;;
75280;SDS011;63874;47.230;39.620;2023-09-12T20:59:09;22.63;;;8.85;;
75280;SDS011;63874;47.230;39.620;2023-09-12T21:01:35;19.67;;;8.30;;
75280;SDS011;63874;47.230;39.620;2023-09-12T21:04:01;15.13;;;5.82;;
75280;SDS011;63874;47.230;39.620;2023-09-12T21:06:29;19.35;;;8.63;;
75280;SDS011;63874;47.230;39.620;2023-09-12T21:08:57;18.45;;;8.25;;
75280;SDS011;63874;47.230;39.620;2023-09-12T21:11:23;18.45;;;7.88;;
75280;SDS011;63874;47.230;39.620;2023-09-12T21:13:50;18.77;;;8.10;;
75280;SDS011;63874;47.230;39.620;2023-09-12T21:16:16;10.00;;;5.45;;
75280;SDS011;63874;47.230;39.620;2023-09-12T21:18:43;20.20;;;8.48;;
75280;SDS011;63874;47.230;39.620;2023-09-12T21:21:09;16.33;;;8.45;;
75280;SDS011;63874;47.230;39.620;2023-09-12T21:23:36;19.10;;;7.05;;
75280;SDS011;63874;47.230;39.620;2023-09-12T21:26:01;16.80;;;7.35;;
75280;SDS011;63874;47.230;39.620;2023-09-12T21:28:28;17.75;;;8.27;;
75280;SDS011;63874;47.230;39.620;2023-09-12T21:30:54;22.70;;;7.45;;
75280;SDS011;63874;47.230;39.620;2023-09-12T21:33:20;16.30;;;8.57;;
75280;SDS011;63874;47.230;39.620;2023-09-12T21:35:46;17.10;;;8.00;;
75280;SDS011;63874;47.230;39.620;2023-09-12T21:38:12;21.58;;;8.20;;
75280;SDS011;63874;47.230;39.620;2023-09-12T21:40:38;21.52;;;9.10;;
75280;SDS011;63874;47.230;39.620;2023-09-12T21:43:04;19.58;;;7.45;;
75280;SDS011;63874;47.230;39.620;2023-09-12T21:45:30;13.55;;;6.47;;
75280;SDS011;63874;47.230;39.620;2023-09-12T21:47:56;20.20;;;8.65;;
75280;SDS011;63874;47.230;39.620;2023-09-12T21:50:22;14.57;;;5.55;;
75280;SDS011;63874;47.230;39.620;2023-09-12T21:52:48;16.30;;;8.07;;
75280;SDS011;63874;47.230;39.620;2023-09-12T21:55:14;14.68;;;5.47;;
75280;SDS011;63874;47.230;39.620;2023-09-12T21:57:40;20.33;;;7.25;;
75280;SDS011;63874;47.230;39.620;2023-09-12T22:00:06;15.52;;;6.90;;
75280;SDS011;63874;47.230;39.620;2023-09-12T22:02:45;19.30;;;8.20;;
75280;SDS011;63874;47.230;39.620;2023-09-12T22:05:11;19.13;;;7.97;;
75280;SDS011;63874;47.230;39.620;2023-09-12T22:07:37;18.70;;;7.70;;
75280;SDS011;63874;47.230;39.620;2023-09-12T22:10:03;18.58;;;6.88;;
75280;SDS011;63874;47.230;39.620;2023-09-12T22:12:29;17.67;;;7.80;;
75280;SDS011;63874;47.230;39.620;2023-09-12T22:14:55;16.85;;;7.70;;
75280;SDS011;63874;47.230;39.620;2023-09-12T22:17:21;14.60;;;5.72;;
75280;SDS011;63874;47.230;39.620;2023-09-12T22:19:49;17.52;;;8.30;;
75280;SDS011;63874;47.230;39.620;2023-09-12T22:22:16;16.67;;;6.78;;
75280;SDS011;63874;47.230;39.620;2023-09-12T22:24:43;18.35;;;7.47;;
75280;SDS011;63874;47.230;39.620;2023-09-12T22:27:10;15.45;;;6.85;;
75280;SDS011;63874;47.230;39.620;2023-09-12T22:29:36;21.20;;;7.47;;
75280;SDS011;63874;47.230;39.620;2023-09-12T22:32:02;16.75;;;7.95;;
75280;SDS011;63874;47.230;39.620;2023-09-12T22:34:28;17.08;;;8.13;;
75280;SDS011;63874;47.230;39.620;2023-09-12T22:36:56;26.48;;;7.10;;
75280;SDS011;63874;47.230;39.620;2023-09-12T22:39:22;16.15;;;6.53;;
75280;SDS011;63874;47.230;39.620;2023-09-12T22:41:48;19.65;;;7.68;;
75280;SDS011;63874;47.230;39.620;2023-09-12T22:44:14;18.85;;;8.00;;
75280;SDS011;63874;47.230;39.620;2023-09-12T22:46:39;13.45;;;5.93;;
75280;SDS011;63874;47.230;39.620;2023-09-12T22:49:05;18.83;;;8.45;;
75280;SDS011;63874;47.230;39.620;2023-09-12T22:51:31;16.83;;;7.22;;
75280;SDS011;63874;47.230;39.620;2023-09-12T22:53:59;19.63;;;7.55;;
75280;SDS011;63874;47.230;39.620;2023-09-12T22:56:24;19.27;;;8.52;;
75280;SDS011;63874;47.230;39.620;2023-09-12T22:58:50;16.63;;;7.72;;
75280;SDS011;63874;47.230;39.620;2023-09-12T23:01:18;15.93;;;7.93;;
75280;SDS011;63874;47.230;39.620;2023-09-12T23:03:44;22.38;;;9.38;;
75280;SDS011;63874;47.230;39.620;2023-09-12T23:06:09;18.33;;;8.15;;
75280;SDS011;63874;47.230;39.620;2023-09-12T23:08:35;22.75;;;8.85;;
75280;SDS011;63874;47.230;39.620;2023-09-12T23:11:01;19.25;;;8.63;;
75280;SDS011;63874;47.230;39.620;2023-09-12T23:13:30;16.50;;;7.53;;
75280;SDS011;63874;47.230;39.620;2023-09-12T23:15:58;21.20;;;8.15;;
75280;SDS011;63874;47.230;39.620;2023-09-12T23:18:26;28.38;;;8.75;;
75280;SDS011;63874;47.230;39.620;2023-09-12T23:20:52;19.00;;;8.68;;
75280;SDS011;63874;47.230;39.620;2023-09-12T23:23:18;18.58;;;7.65;;
75280;SDS011;63874;47.230;39.620;2023-09-12T23:25:44;17.80;;;7.68;;
75280;SDS011;63874;47.230;39.620;2023-09-12T23:28:10;20.38;;;9.07;;
75280;SDS011;63874;47.230;39.620;2023-09-12T23:30:39;20.20;;;9.27;;
75280;SDS011;63874;47.230;39.620;2023-09-12T23:33:07;17.40;;;7.30;;